createdAt,value
2018-08-18T00:00:36.330Z,20.90
2018-08-18T00:03:06.804Z,23.37
2018-08-18T00:05:36.584Z,14.30
2018-08-18T00:08:06.889Z,11.83
2018-08-18T00:10:36.783Z,12.77
2018-08-18T00:13:06.552Z,14.87
2018-08-18T00:15:36.287Z,14.53
2018-08-18T00:18:06.442Z,29.03
2018-08-18T00:20:37.044Z,16.73
2018-08-18T00:23:06.732Z,23.03
2018-08-18T00:25:36.438Z,18.63
2018-08-18T00:28:22.421Z,13.83
2018-08-18T00:30:52.233Z,15.17
2018-08-18T00:33:22.228Z,12.60
2018-08-18T00:35:51.946Z,13.37
2018-08-18T00:38:23.891Z,11.57
2018-08-18T00:40:54.685Z,12.97
2018-08-18T00:43:24.533Z,21.33
2018-08-18T00:45:54.557Z,11.90
2018-08-18T00:48:25.337Z,24.63
2018-08-18T00:50:55.741Z,12.07
2018-08-18T00:53:25.535Z,11.20
2018-08-18T00:55:55.211Z,18.57
2018-08-18T00:58:30.992Z,12.30
2018-08-18T01:01:05.830Z,13.00
2018-08-18T01:03:43.452Z,11.13
2018-08-18T01:06:24.526Z,12.03
2018-08-18T01:08:56.400Z,12.07
2018-08-18T01:11:26.470Z,11.40
2018-08-18T01:13:57.144Z,14.37
2018-08-18T01:16:27.155Z,13.43
2018-08-18T01:18:57.395Z,15.30
2018-08-18T01:21:27.337Z,12.13
2018-08-18T01:23:57.830Z,17.53
2018-08-18T01:26:28.877Z,14.53
2018-08-18T01:29:07.978Z,21.10
2018-08-18T01:31:37.938Z,11.23
2018-08-18T01:34:08.346Z,12.27
2018-08-18T01:36:38.096Z,13.23
2018-08-18T01:39:09.652Z,17.87
2018-08-18T01:41:40.577Z,13.37
2018-08-18T01:44:21.471Z,17.60
2018-08-18T01:46:53.263Z,12.83
2018-08-18T01:49:35.849Z,17.73
2018-08-18T01:52:13.084Z,17.73
2018-08-18T01:54:43.498Z,15.13
2018-08-18T01:57:13.773Z,18.80
2018-08-18T01:59:44.877Z,16.57
2018-08-18T02:02:16.618Z,15.43
2018-08-18T02:04:46.964Z,16.47
2018-08-18T02:07:29.603Z,19.13
2018-08-18T02:09:59.442Z,12.53
2018-08-18T02:12:29.742Z,15.87
2018-08-18T02:15:00.639Z,17.30
2018-08-18T02:17:34.977Z,19.33
2018-08-18T02:20:05.699Z,15.73
2018-08-18T02:22:35.436Z,14.50
2018-08-18T02:25:05.848Z,18.10
2018-08-18T02:27:35.916Z,15.97
2018-08-18T02:30:24.174Z,15.70
2018-08-18T02:32:54.189Z,15.73
2018-08-18T02:35:24.976Z,16.07
2018-08-18T02:37:54.951Z,16.80
2018-08-18T02:40:24.813Z,17.63
2018-08-18T02:42:54.556Z,18.20
2018-08-18T02:45:25.936Z,23.73
2018-08-18T02:48:10.452Z,21.37
2018-08-18T02:50:44.670Z,15.80
2018-08-18T02:53:24.289Z,23.23
2018-08-18T02:55:55.087Z,16.17
2018-08-18T02:58:25.051Z,16.10
2018-08-18T03:00:54.909Z,17.47
2018-08-18T03:03:25.909Z,18.73
2018-08-18T03:06:00.820Z,17.50
2018-08-18T03:08:32.236Z,20.43
2018-08-18T03:11:02.400Z,20.77
2018-08-18T03:13:32.296Z,15.83
2018-08-18T03:16:03.139Z,16.90
2018-08-18T03:18:39.994Z,18.47
2018-08-18T03:21:09.874Z,18.37
2018-08-18T03:23:41.696Z,22.50
2018-08-18T03:26:11.462Z,35.93
2018-08-18T03:28:45.271Z,18.10
2018-08-18T03:31:15.240Z,17.67
2018-08-18T03:33:46.074Z,16.70
2018-08-18T03:36:28.185Z,19.30
2018-08-18T03:38:58.444Z,17.60
2018-08-18T03:41:29.077Z,17.83
2018-08-18T03:43:59.067Z,16.07
2018-08-18T03:46:28.879Z,16.07
2018-08-18T03:48:58.773Z,17.17
2018-08-18T03:51:48.408Z,18.57
2018-08-18T03:54:18.306Z,16.00
2018-08-18T03:56:50.021Z,15.27
2018-08-18T03:59:19.871Z,19.33
2018-08-18T04:01:54.024Z,18.80
2018-08-18T04:04:25.025Z,15.97
2018-08-18T04:06:56.042Z,18.40
2018-08-18T04:09:28.956Z,20.07
2018-08-18T04:12:01.164Z,16.70
2018-08-18T04:14:37.703Z,16.07
2018-08-18T04:17:17.078Z,16.40
2018-08-18T04:19:48.142Z,17.30
2018-08-18T04:22:17.927Z,17.50
2018-08-18T04:24:49.576Z,16.50
2018-08-18T04:27:52.067Z,17.83
2018-08-18T04:30:22.851Z,17.60
2018-08-18T04:32:59.278Z,16.87
2018-08-18T04:35:30.096Z,18.80
2018-08-18T04:38:01.551Z,15.37
2018-08-18T04:40:31.589Z,20.80
2018-08-18T04:43:02.194Z,17.50
2018-08-18T04:45:32.047Z,16.60
2018-08-18T04:48:01.700Z,14.47
2018-08-18T04:50:31.517Z,17.73
2018-08-18T04:53:01.334Z,17.10
2018-08-18T04:55:31.516Z,14.03
2018-08-18T04:58:01.360Z,13.57
2018-08-18T05:00:32.529Z,17.80
2018-08-18T05:03:03.684Z,13.93
2018-08-18T05:05:34.681Z,13.50
2018-08-18T05:08:04.578Z,13.47
2018-08-18T05:10:34.406Z,14.27
2018-08-18T05:13:04.234Z,12.83
2018-08-18T05:15:34.132Z,12.87
2018-08-18T05:18:04.064Z,13.67
2018-08-18T05:20:33.896Z,19.20
2018-08-18T05:23:20.118Z,15.87
2018-08-18T05:25:52.334Z,18.60
2018-08-18T05:28:23.000Z,15.10
2018-08-18T05:30:54.799Z,13.80
2018-08-18T05:33:25.368Z,16.90
2018-08-18T05:35:56.976Z,15.43
2018-08-18T05:38:31.420Z,14.53
2018-08-18T05:41:09.575Z,17.30
2018-08-18T05:43:42.844Z,11.00
2018-08-18T05:46:16.346Z,11.60
2018-08-18T05:48:50.500Z,12.80
2018-08-18T05:51:25.775Z,12.50
2018-08-18T05:55:05.578Z,15.37
2018-08-18T05:57:43.180Z,11.90
2018-08-18T06:00:22.964Z,10.80
2018-08-18T06:03:01.374Z,12.30
2018-08-18T06:05:33.701Z,11.60
2018-08-18T06:08:06.746Z,18.30
2018-08-18T06:10:39.091Z,9.70
2018-08-18T06:13:14.923Z,13.73
2018-08-18T06:15:56.924Z,11.23
2018-08-18T06:18:29.239Z,11.23
2018-08-18T06:21:01.823Z,10.40
2018-08-18T06:23:47.830Z,11.50
2018-08-18T06:26:21.069Z,12.90
2018-08-18T06:28:53.889Z,13.03
2018-08-18T06:31:26.190Z,16.07
2018-08-18T06:33:57.924Z,10.33
2018-08-18T06:36:30.848Z,16.50
2018-08-18T06:39:05.410Z,15.27
2018-08-18T06:41:37.008Z,10.40
2018-08-18T06:44:09.393Z,10.00
2018-08-18T06:46:40.907Z,12.50
2018-08-18T06:49:12.855Z,10.73
2018-08-18T06:51:52.614Z,12.63
2018-08-18T06:54:24.337Z,9.97
2018-08-18T06:56:56.594Z,8.73
2018-08-18T06:59:29.091Z,9.20
2018-08-18T07:02:01.726Z,9.83
2018-08-18T07:04:33.637Z,15.57
2018-08-18T07:07:03.404Z,12.73
2018-08-18T07:09:33.308Z,9.57
2018-08-18T07:12:05.620Z,11.87
2018-08-18T07:14:35.958Z,11.93
2018-08-18T07:17:07.115Z,8.73
2018-08-18T07:19:36.913Z,11.17
2018-08-18T07:22:07.417Z,16.53
2018-08-18T07:24:40.933Z,9.30
2018-08-18T07:27:15.039Z,11.03
2018-08-18T07:29:52.922Z,8.93
2018-08-18T07:32:25.151Z,11.93
2018-08-18T07:35:00.875Z,10.73
2018-08-18T07:37:32.125Z,9.10
2018-08-18T07:40:02.096Z,10.20
2018-08-18T07:42:32.590Z,10.97
2018-08-18T07:45:03.406Z,8.50
2018-08-18T07:47:35.995Z,20.97
2018-08-18T07:50:09.143Z,28.67
2018-08-18T07:52:39.158Z,19.43
2018-08-18T07:55:10.582Z,11.90
2018-08-18T07:57:47.023Z,12.00
2018-08-18T08:00:16.761Z,17.37
2018-08-18T08:02:47.100Z,12.70
2018-08-18T08:05:18.683Z,10.70
2018-08-18T08:07:51.167Z,19.97
2018-08-18T08:10:23.653Z,20.23
2018-08-18T08:12:55.586Z,18.87
2018-08-18T08:15:29.750Z,14.27
2018-08-18T08:18:02.224Z,10.57
2018-08-18T08:20:34.186Z,14.57
2018-08-18T08:23:11.671Z,21.77
2018-08-18T08:25:45.019Z,9.50
2018-08-18T08:28:18.045Z,11.43
2018-08-18T08:30:51.346Z,13.50
2018-08-18T08:33:44.510Z,14.83
2018-08-18T08:36:18.571Z,11.40
2018-08-18T08:38:54.588Z,15.93
2018-08-18T08:41:27.578Z,9.67
2018-08-18T08:44:01.308Z,13.67
2018-08-18T08:46:33.460Z,18.60
2018-08-18T08:49:05.823Z,11.37
2018-08-18T08:51:37.846Z,11.83
2018-08-18T08:54:10.945Z,17.13
2018-08-18T08:56:41.141Z,9.83
2018-08-18T08:59:11.929Z,12.67
2018-08-18T09:01:42.120Z,9.20
2018-08-18T09:04:12.849Z,12.17
2018-08-18T09:06:48.499Z,8.00
2018-08-18T09:09:33.415Z,12.27
2018-08-18T09:12:04.095Z,9.73
2018-08-18T09:14:36.208Z,15.83
2018-08-18T09:17:08.630Z,13.00
2018-08-18T09:19:39.181Z,15.33
2018-08-18T09:22:10.709Z,8.30
2018-08-18T09:24:40.867Z,8.63
2018-08-18T09:27:12.480Z,7.73
2018-08-18T09:29:47.525Z,10.60
2018-08-18T09:32:18.987Z,11.93
2018-08-18T09:36:18.632Z,9.23
2018-08-18T09:38:50.207Z,9.97
2018-08-18T09:41:21.446Z,9.50
2018-08-18T09:43:51.947Z,10.97
2018-08-18T09:46:22.737Z,17.97
2018-08-18T09:48:54.034Z,10.40
2018-08-18T09:51:23.995Z,12.93
2018-08-18T09:53:54.837Z,10.43
2018-08-18T09:56:25.071Z,22.50
2018-08-18T09:58:55.207Z,8.33
2018-08-18T10:01:25.466Z,9.50
2018-08-18T10:03:56.197Z,11.47
2018-08-18T10:06:30.295Z,15.27
2018-08-18T10:09:00.513Z,8.17
2018-08-18T10:11:31.078Z,9.93
2018-08-18T10:14:01.471Z,7.03
2018-08-18T10:16:31.885Z,11.97
2018-08-18T10:19:01.989Z,8.70
2018-08-18T10:21:32.246Z,8.33
2018-08-18T10:24:02.473Z,12.47
2018-08-18T10:26:33.317Z,16.10
2018-08-18T10:29:27.753Z,8.50
2018-08-18T10:31:59.345Z,8.43
2018-08-18T10:34:31.607Z,8.23
2018-08-18T10:37:04.415Z,9.13
2018-08-18T10:39:38.077Z,12.13
2018-08-18T10:42:16.862Z,12.30
2018-08-18T10:44:52.339Z,16.20
2018-08-18T10:47:24.093Z,7.90
2018-08-18T10:50:06.562Z,13.13
2018-08-18T10:52:48.050Z,14.00
2018-08-18T10:55:20.090Z,8.33
2018-08-18T10:57:58.923Z,8.40
2018-08-18T11:00:30.598Z,7.97
2018-08-18T11:03:03.138Z,14.50
2018-08-18T11:05:33.581Z,16.33
2018-08-18T11:08:07.864Z,11.00
2018-08-18T11:10:41.161Z,13.33
2018-08-18T11:13:11.869Z,7.83
2018-08-18T11:15:45.114Z,8.30
2018-08-18T11:18:15.799Z,11.23
2018-08-18T11:20:47.971Z,9.17
2018-08-18T11:23:18.274Z,8.40
2018-08-18T11:25:50.450Z,13.83
2018-08-18T11:28:22.983Z,10.73
2018-08-18T11:30:55.650Z,8.93
2018-08-18T11:33:38.965Z,14.47
2018-08-18T11:36:10.449Z,7.17
2018-08-18T11:38:41.030Z,6.60
2018-08-18T11:41:11.652Z,15.33
2018-08-18T11:43:48.303Z,14.97
2018-08-18T11:46:19.123Z,7.73
2018-08-18T11:48:49.498Z,17.33
2018-08-18T11:51:21.971Z,8.20
2018-08-18T11:54:00.116Z,10.50
2018-08-18T11:56:30.579Z,10.83
2018-08-18T11:59:07.952Z,6.87
2018-08-18T12:01:41.189Z,11.77
2018-08-18T12:04:11.380Z,9.30
2018-08-18T12:06:48.643Z,18.30
2018-08-18T12:09:19.124Z,10.17
2018-08-18T12:11:51.578Z,19.60
2018-08-18T12:14:24.311Z,13.30
2018-08-18T12:16:54.497Z,9.00
2018-08-18T12:19:24.411Z,6.80
2018-08-18T12:21:55.791Z,8.40
2018-08-18T12:24:27.351Z,15.47
2018-08-18T12:27:07.590Z,6.43
2018-08-18T12:31:06.727Z,9.80
2018-08-18T12:33:37.351Z,13.63
2018-08-18T12:36:08.179Z,24.67
2018-08-18T12:38:41.448Z,15.97
2018-08-18T12:41:11.664Z,6.40
2018-08-18T12:43:44.434Z,8.27
2018-08-18T12:46:17.582Z,11.43
2018-08-18T12:48:49.564Z,6.60
2018-08-18T12:51:21.299Z,6.10
2018-08-18T12:53:56.805Z,16.73
2018-08-18T12:56:28.011Z,20.63
2018-08-18T12:58:59.279Z,10.10
2018-08-18T13:01:44.933Z,12.63
2018-08-18T13:04:18.994Z,13.80
2018-08-18T13:06:55.455Z,8.03
2018-08-18T13:09:27.608Z,9.37
2018-08-18T13:12:00.267Z,10.43
2018-08-18T13:14:31.865Z,10.57
2018-08-18T13:17:02.200Z,7.03
2018-08-18T13:19:35.012Z,17.87
2018-08-18T13:22:05.252Z,12.70
2018-08-18T13:24:37.296Z,18.80
2018-08-18T13:27:08.077Z,6.10
2018-08-18T13:29:39.633Z,6.80
2018-08-18T13:32:10.606Z,9.83
2018-08-18T13:34:41.073Z,10.90
2018-08-18T13:37:11.245Z,13.07
2018-08-18T13:39:41.943Z,13.20
2018-08-18T13:42:23.760Z,11.43
2018-08-18T13:44:54.801Z,8.70
2018-08-18T13:47:25.146Z,8.70
2018-08-18T13:50:15.510Z,14.27
2018-08-18T13:52:50.748Z,7.87
2018-08-18T13:55:25.152Z,12.00
2018-08-18T13:57:56.359Z,10.73
2018-08-18T14:00:27.883Z,9.13
2018-08-18T14:02:58.222Z,7.93
2018-08-18T14:05:31.196Z,15.43
2018-08-18T14:08:03.843Z,13.37
2018-08-18T14:10:34.410Z,13.00
2018-08-18T14:13:05.053Z,12.50
2018-08-18T14:15:35.706Z,11.70
2018-08-18T14:18:12.104Z,15.17
2018-08-18T14:20:59.746Z,12.07
2018-08-18T14:23:30.127Z,9.70
2018-08-18T14:26:00.340Z,23.13
2018-08-18T14:28:30.516Z,9.70
2018-08-18T14:31:00.930Z,17.60
2018-08-18T14:33:31.168Z,16.47
2018-08-18T14:36:06.478Z,14.27
2018-08-18T14:38:37.287Z,13.43
2018-08-18T14:41:08.697Z,11.23
2018-08-18T14:43:40.820Z,15.27
2018-08-18T14:46:15.625Z,12.63
2018-08-18T14:48:46.735Z,14.30
2018-08-18T14:51:16.928Z,19.03
2018-08-18T14:53:49.169Z,13.67
2018-08-18T14:56:21.373Z,10.50
2018-08-18T14:58:51.574Z,13.33
2018-08-18T15:01:21.882Z,10.73
2018-08-18T15:03:51.892Z,19.10
2018-08-18T15:06:22.292Z,17.83
2018-08-18T15:08:53.557Z,20.40
2018-08-18T15:11:23.984Z,18.20
2018-08-18T15:13:54.442Z,10.97
2018-08-18T15:16:24.762Z,15.83
2018-08-18T15:18:54.827Z,11.77
2018-08-18T15:21:25.209Z,13.40
2018-08-18T15:23:55.538Z,12.10
2018-08-18T15:26:25.849Z,10.37
2018-08-18T15:28:58.019Z,20.23
2018-08-18T15:31:28.249Z,12.60
2018-08-18T15:33:58.548Z,19.13
2018-08-18T15:36:34.395Z,17.23
2018-08-18T15:39:05.641Z,17.43
2018-08-18T15:41:35.647Z,13.80
2018-08-18T15:44:10.503Z,13.70
2018-08-18T15:46:40.503Z,15.10
2018-08-18T15:49:11.879Z,15.40
2018-08-18T15:51:45.376Z,24.70
2018-08-18T15:54:15.972Z,9.97
2018-08-18T15:56:46.935Z,10.97
2018-08-18T15:59:17.054Z,23.97
2018-08-18T16:01:47.287Z,12.53
2018-08-18T16:04:17.457Z,13.10
2018-08-18T16:06:48.761Z,13.90
2018-08-18T16:09:18.812Z,16.23
2018-08-18T16:11:49.281Z,22.33
2018-08-18T16:14:19.484Z,23.97
2018-08-18T16:16:58.766Z,13.20
2018-08-18T16:19:30.019Z,9.63
2018-08-18T16:22:00.108Z,15.47
2018-08-18T16:24:33.897Z,19.27
2018-08-18T16:27:08.017Z,15.30
2018-08-18T16:29:38.731Z,16.57
2018-08-18T16:32:26.502Z,16.67
2018-08-18T16:35:02.101Z,12.90
2018-08-18T16:37:35.174Z,13.10
2018-08-18T16:40:05.557Z,24.23
2018-08-18T16:42:36.089Z,14.63
2018-08-18T16:45:07.313Z,14.37
2018-08-18T16:47:46.415Z,13.00
2018-08-18T16:50:18.186Z,13.27
2018-08-18T16:52:49.454Z,10.53
2018-08-18T16:55:19.908Z,17.00
2018-08-18T16:57:50.171Z,18.67
2018-08-18T17:00:20.367Z,11.80
2018-08-18T17:02:52.503Z,16.77
2018-08-18T17:05:23.336Z,18.40
2018-08-18T17:07:54.042Z,15.93
2018-08-18T17:10:25.488Z,12.23
2018-08-18T17:12:59.428Z,20.90
2018-08-18T17:15:29.944Z,37.97
2018-08-18T17:18:00.162Z,68.80
2018-08-18T17:20:30.298Z,80.37
2018-08-18T17:23:01.945Z,61.00
2018-08-18T17:25:36.914Z,57.30
2018-08-18T17:28:07.906Z,36.27
2018-08-18T17:30:38.210Z,28.03
2018-08-18T17:33:09.219Z,28.70
2018-08-18T17:35:39.546Z,15.40
2018-08-18T17:38:09.956Z,16.00
2018-08-18T17:40:40.571Z,31.53
2018-08-18T17:43:11.068Z,24.17
2018-08-18T17:45:56.990Z,13.47
2018-08-18T17:48:28.497Z,16.40
2018-08-18T17:50:58.874Z,17.37
2018-08-18T17:53:29.338Z,11.17
2018-08-18T17:56:06.800Z,13.10
2018-08-18T17:58:37.885Z,25.63
2018-08-18T18:01:10.199Z,10.53
2018-08-18T18:03:41.359Z,8.80
2018-08-18T18:06:12.368Z,14.00
2018-08-18T18:08:43.629Z,13.50
2018-08-18T18:11:14.645Z,10.67
2018-08-18T18:13:44.953Z,19.13
2018-08-18T18:16:28.278Z,14.50
2018-08-18T18:19:00.310Z,12.97
2018-08-18T18:21:32.427Z,14.23
2018-08-18T18:24:02.708Z,19.63
2018-08-18T18:26:34.049Z,13.70
2018-08-18T18:29:06.690Z,15.63
2018-08-18T18:31:38.077Z,12.83
2018-08-18T18:34:08.717Z,12.23
2018-08-18T18:36:40.681Z,20.97
2018-08-18T18:39:11.124Z,9.30
2018-08-18T18:41:41.456Z,18.57
2018-08-18T18:44:12.507Z,14.80
2018-08-18T18:46:42.711Z,14.23
2018-08-18T18:49:24.922Z,18.10
2018-08-18T18:51:55.296Z,17.30
2018-08-18T18:54:25.946Z,21.63
2018-08-18T18:56:56.536Z,10.03
2018-08-18T18:59:26.897Z,9.83
2018-08-18T19:01:56.987Z,8.40
2018-08-18T19:04:27.345Z,17.13
2018-08-18T19:07:04.886Z,13.00
2018-08-18T19:09:35.136Z,14.90
2018-08-18T19:12:05.791Z,14.93
2018-08-18T19:14:36.690Z,15.00
2018-08-18T19:17:07.138Z,7.77
2018-08-18T19:19:37.307Z,12.13
2018-08-18T19:22:10.077Z,13.00
2018-08-18T19:24:40.255Z,8.37
2018-08-18T19:27:10.532Z,22.93
2018-08-18T19:29:42.525Z,9.23
2018-08-18T19:32:12.824Z,9.73
2018-08-18T19:34:43.489Z,12.20
2018-08-18T19:37:13.650Z,6.60
2018-08-18T19:39:43.916Z,13.03
2018-08-18T19:42:16.648Z,8.50
2018-08-18T19:44:49.234Z,13.83
2018-08-18T19:47:25.184Z,8.27
2018-08-18T19:49:55.768Z,13.03
2018-08-18T19:52:31.999Z,12.90
2018-08-18T19:55:10.284Z,13.73
2018-08-18T19:57:57.429Z,10.87
2018-08-18T20:00:28.966Z,14.83
2018-08-18T20:03:08.785Z,9.63
2018-08-18T20:05:40.157Z,7.00
2018-08-18T20:08:11.398Z,9.93
2018-08-18T20:10:47.619Z,6.60
2018-08-18T20:13:22.288Z,8.43
2018-08-18T20:15:54.093Z,16.63
2018-08-18T20:18:47.023Z,6.93
2018-08-18T20:21:31.829Z,16.97
2018-08-18T20:24:03.134Z,6.70
2018-08-18T20:26:45.023Z,15.23
2018-08-18T20:29:16.218Z,9.60
2018-08-18T20:32:06.812Z,11.20
2018-08-18T20:34:53.939Z,12.67
2018-08-18T20:37:25.352Z,9.90
2018-08-18T20:39:55.777Z,15.47
2018-08-18T20:42:59.143Z,8.13
2018-08-18T20:45:37.277Z,15.70
2018-08-18T20:48:07.778Z,9.60
2018-08-18T20:50:38.122Z,12.70
2018-08-18T20:53:12.602Z,13.10
2018-08-18T20:55:45.628Z,12.17
2018-08-18T20:58:17.077Z,10.57
2018-08-18T21:00:47.841Z,9.90
2018-08-18T21:03:18.817Z,19.63
2018-08-18T21:05:49.260Z,12.80
2018-08-18T21:08:19.945Z,19.43
2018-08-18T21:10:52.048Z,12.70
2018-08-18T21:13:23.295Z,10.00
2018-08-18T21:15:53.499Z,10.57
2018-08-18T21:18:23.982Z,8.30
2018-08-18T21:20:54.137Z,13.07
2018-08-18T21:23:26.705Z,10.87
2018-08-18T21:25:56.530Z,10.37
2018-08-18T21:28:27.311Z,14.50
2018-08-18T21:30:58.060Z,10.10
2018-08-18T21:33:28.097Z,9.40
2018-08-18T21:35:57.880Z,13.03
2018-08-18T21:38:28.812Z,10.60
2018-08-18T21:40:59.960Z,9.13
2018-08-18T21:43:35.220Z,11.53
2018-08-18T21:46:06.230Z,18.40
2018-08-18T21:48:53.094Z,12.03
2018-08-18T21:51:28.089Z,10.47
2018-08-18T21:53:57.943Z,10.40
2018-08-18T21:56:30.636Z,11.10
2018-08-18T21:59:00.479Z,11.13
2018-08-18T22:01:30.668Z,9.87
2018-08-18T22:04:00.484Z,9.63
2018-08-18T22:06:30.947Z,10.07
2018-08-18T22:09:16.600Z,13.63
2018-08-18T22:11:46.573Z,11.50
2018-08-18T22:14:18.449Z,15.53
2018-08-18T22:16:53.119Z,8.03
2018-08-18T22:19:23.303Z,7.60
2018-08-18T22:21:53.147Z,8.30
2018-08-18T22:24:23.092Z,9.57
2018-08-18T22:26:53.098Z,9.67
2018-08-18T22:29:28.382Z,15.07
2018-08-18T22:31:59.237Z,10.40
2018-08-18T22:34:29.066Z,10.90
2018-08-18T22:37:10.039Z,8.10
2018-08-18T22:39:40.186Z,15.50
2018-08-18T22:42:11.182Z,9.17
2018-08-18T22:44:41.642Z,8.70
2018-08-18T22:47:12.550Z,11.20
2018-08-18T22:49:43.717Z,8.50
2018-08-18T22:52:13.525Z,9.20
2018-08-18T22:54:43.452Z,11.27
2018-08-18T22:57:16.107Z,10.67
2018-08-18T22:59:45.941Z,9.00
2018-08-18T23:02:15.901Z,9.80
2018-08-18T23:04:45.822Z,10.47
2018-08-18T23:07:15.705Z,9.60
2018-08-18T23:09:45.447Z,8.63
2018-08-18T23:12:15.112Z,10.07
2018-08-18T23:14:44.800Z,10.43
2018-08-18T23:17:14.640Z,9.33
2018-08-18T23:19:44.324Z,11.90
2018-08-18T23:23:23.120Z,8.93
2018-08-18T23:25:54.940Z,15.60
2018-08-18T23:28:24.988Z,8.63
2018-08-18T23:30:54.684Z,12.93
2018-08-18T23:33:24.533Z,9.87
2018-08-18T23:35:54.299Z,9.20
2018-08-18T23:38:24.231Z,14.50
2018-08-18T23:40:59.538Z,8.03
2018-08-18T23:43:29.295Z,13.50
2018-08-18T23:46:00.245Z,15.20
2018-08-18T23:48:29.998Z,10.13
2018-08-18T23:50:59.644Z,8.57
2018-08-18T23:53:29.722Z,7.77
2018-08-18T23:56:00.633Z,8.97
2018-08-18T23:58:31.284Z,8.07
